createdAt,value
2017-12-20T00:00:25.042Z,15.73
2017-12-20T00:01:31.981Z,16.80
2017-12-20T00:02:38.545Z,15.35
2017-12-20T00:03:46.049Z,17.48
2017-12-20T00:04:52.733Z,16.50
2017-12-20T00:06:00.033Z,16.15
2017-12-20T00:07:07.144Z,16.50
2017-12-20T00:08:14.085Z,16.62
2017-12-20T00:09:22.215Z,16.55
2017-12-20T00:10:29.657Z,16.10
2017-12-20T00:11:36.856Z,15.85
2017-12-20T00:12:44.057Z,16.10
2017-12-20T00:13:54.009Z,16.15
2017-12-20T00:15:00.865Z,15.25
2017-12-20T00:16:07.890Z,15.20
2017-12-20T00:17:15.832Z,15.27
2017-12-20T00:18:26.785Z,16.27
2017-12-20T00:19:34.240Z,15.68
2017-12-20T00:20:44.655Z,15.70
2017-12-20T00:21:54.077Z,15.18
2017-12-20T00:23:01.030Z,14.52
2017-12-20T00:24:07.303Z,15.13
2017-12-20T00:25:13.565Z,14.98
2017-12-20T00:26:19.867Z,14.45
2017-12-20T00:27:25.787Z,15.23
2017-12-20T00:28:32.142Z,15.95
2017-12-20T00:29:38.352Z,15.13
2017-12-20T00:30:44.566Z,15.02
2017-12-20T00:31:50.782Z,15.18
2017-12-20T00:32:56.399Z,14.18
2017-12-20T00:34:02.092Z,14.20
2017-12-20T00:35:07.771Z,14.75
2017-12-20T00:36:13.475Z,13.88
2017-12-20T00:37:19.093Z,15.13
2017-12-20T00:38:24.787Z,14.52
2017-12-20T00:39:30.458Z,13.62
2017-12-20T00:40:36.793Z,15.88
2017-12-20T00:41:43.019Z,14.40
2017-12-20T00:42:49.249Z,13.43
2017-12-20T00:43:55.446Z,14.87
2017-12-20T00:45:01.438Z,13.95
2017-12-20T00:46:07.715Z,13.60
2017-12-20T00:47:13.921Z,14.63
2017-12-20T00:48:20.132Z,14.57
2017-12-20T00:49:34.323Z,14.15
2017-12-20T00:50:40.559Z,13.80
2017-12-20T00:51:46.806Z,14.20
2017-12-20T00:52:53.035Z,14.55
2017-12-20T00:53:59.274Z,14.15
2017-12-20T00:55:05.466Z,15.60
2017-12-20T00:56:11.667Z,14.93
2017-12-20T00:57:18.807Z,13.20
2017-12-20T00:58:24.983Z,14.60
2017-12-20T00:59:31.211Z,14.30
2017-12-20T01:00:37.423Z,14.05
2017-12-20T01:01:46.266Z,13.93
2017-12-20T01:02:52.578Z,15.13
2017-12-20T01:03:58.753Z,14.32
2017-12-20T01:05:05.535Z,14.13
2017-12-20T01:06:11.460Z,13.45
2017-12-20T01:07:17.671Z,12.95
2017-12-20T01:08:23.570Z,13.77
2017-12-20T01:09:29.514Z,14.30
2017-12-20T01:10:37.648Z,13.62
2017-12-20T01:11:43.910Z,14.23
2017-12-20T01:12:50.093Z,12.75
2017-12-20T01:13:56.383Z,13.10
2017-12-20T01:15:02.667Z,13.88
2017-12-20T01:16:08.873Z,13.70
2017-12-20T01:17:15.124Z,12.82
2017-12-20T01:18:21.335Z,13.57
2017-12-20T01:19:27.524Z,11.77
2017-12-20T01:20:33.790Z,13.23
2017-12-20T01:21:42.877Z,13.35
2017-12-20T01:22:49.180Z,13.20
2017-12-20T01:23:55.413Z,12.57
2017-12-20T01:25:01.688Z,13.52
2017-12-20T01:26:07.915Z,13.43
2017-12-20T01:27:14.125Z,12.35
2017-12-20T01:28:20.310Z,13.50
2017-12-20T01:29:26.539Z,12.25
2017-12-20T01:30:32.774Z,12.37
2017-12-20T01:31:39.495Z,13.82
2017-12-20T01:32:45.802Z,13.02
2017-12-20T01:33:52.195Z,12.00
2017-12-20T01:34:58.374Z,14.57
2017-12-20T01:36:04.290Z,12.57
2017-12-20T01:37:10.522Z,12.90
2017-12-20T01:38:16.758Z,12.80
2017-12-20T01:39:22.624Z,12.23
2017-12-20T01:40:28.201Z,12.07
2017-12-20T01:41:33.859Z,13.20
2017-12-20T01:42:39.402Z,14.60
2017-12-20T01:43:45.631Z,12.48
2017-12-20T01:44:51.819Z,12.27
2017-12-20T01:45:58.019Z,12.00
2017-12-20T01:47:04.254Z,12.30
2017-12-20T01:48:10.546Z,12.68
2017-12-20T01:49:16.783Z,12.95
2017-12-20T01:50:22.664Z,13.13
2017-12-20T01:51:28.914Z,12.57
2017-12-20T01:52:35.250Z,13.43
2017-12-20T01:53:41.151Z,11.68
2017-12-20T01:54:47.025Z,12.57
2017-12-20T01:55:52.580Z,12.80
2017-12-20T01:56:58.419Z,13.10
2017-12-20T01:58:04.277Z,12.80
2017-12-20T01:59:10.539Z,12.85
2017-12-20T02:00:16.060Z,12.93
2017-12-20T02:01:21.545Z,12.90
2017-12-20T02:02:26.358Z,12.70
2017-12-20T02:03:37.743Z,13.95
2017-12-20T02:04:44.881Z,12.80
2017-12-20T02:05:51.128Z,13.43
2017-12-20T02:06:57.307Z,13.18
2017-12-20T02:08:03.252Z,14.57
2017-12-20T02:09:09.452Z,13.77
2017-12-20T02:10:15.782Z,14.02
2017-12-20T02:11:22.023Z,13.62
2017-12-20T02:12:28.252Z,15.48
2017-12-20T02:13:34.846Z,15.00
2017-12-20T02:14:41.079Z,14.80
2017-12-20T02:15:47.284Z,15.10
2017-12-20T02:16:53.483Z,15.68
2017-12-20T02:17:59.451Z,14.40
2017-12-20T02:19:04.967Z,15.20
2017-12-20T02:20:10.858Z,14.90
2017-12-20T02:21:16.444Z,16.05
2017-12-20T02:22:22.023Z,15.45
2017-12-20T02:23:27.254Z,15.07
2017-12-20T02:24:32.779Z,15.85
2017-12-20T02:25:38.068Z,17.12
2017-12-20T02:26:43.571Z,15.20
2017-12-20T02:27:48.830Z,16.30
2017-12-20T02:28:59.752Z,15.70
2017-12-20T02:30:05.278Z,18.62
2017-12-20T02:31:10.485Z,15.20
2017-12-20T02:32:16.073Z,17.12
2017-12-20T02:33:29.842Z,17.27
2017-12-20T02:34:35.385Z,17.60
2017-12-20T02:35:40.886Z,16.90
2017-12-20T02:36:46.481Z,17.20
2017-12-20T02:37:51.730Z,17.05
2017-12-20T02:38:56.998Z,16.48
2017-12-20T02:40:02.213Z,15.65
2017-12-20T02:41:09.558Z,17.37
2017-12-20T02:42:15.174Z,18.20
2017-12-20T02:43:22.707Z,18.45
2017-12-20T02:44:28.944Z,16.02
2017-12-20T02:45:34.179Z,17.80
2017-12-20T02:46:39.416Z,18.48
2017-12-20T02:47:44.634Z,20.20
2017-12-20T02:48:49.913Z,18.08
2017-12-20T02:49:55.428Z,20.05
2017-12-20T02:51:00.930Z,19.60
2017-12-20T02:52:06.484Z,18.58
2017-12-20T02:53:13.645Z,18.92
2017-12-20T02:54:19.487Z,19.48
2017-12-20T02:55:25.003Z,21.25
2017-12-20T02:56:30.851Z,18.55
2017-12-20T02:57:36.353Z,18.20
2017-12-20T02:58:41.914Z,20.00
2017-12-20T02:59:47.439Z,19.75
2017-12-20T03:00:53.032Z,21.05
2017-12-20T03:01:58.532Z,21.02
2017-12-20T03:03:04.057Z,20.23
2017-12-20T03:04:09.623Z,20.23
2017-12-20T03:05:14.929Z,19.92
2017-12-20T03:06:20.617Z,20.58
2017-12-20T03:07:26.127Z,20.83
2017-12-20T03:08:31.656Z,21.50
2017-12-20T03:09:39.016Z,20.15
2017-12-20T03:10:44.863Z,19.20
2017-12-20T03:11:50.779Z,20.23
2017-12-20T03:12:56.337Z,21.52
2017-12-20T03:14:01.558Z,19.48
2017-12-20T03:15:07.071Z,19.95
2017-12-20T03:16:12.616Z,20.05
2017-12-20T03:17:18.872Z,19.42
2017-12-20T03:18:28.973Z,22.23
2017-12-20T03:19:35.170Z,20.73
2017-12-20T03:20:41.084Z,21.05
2017-12-20T03:21:47.646Z,22.48
2017-12-20T03:22:53.902Z,21.65
2017-12-20T03:24:00.121Z,22.23
2017-12-20T03:25:06.002Z,22.45
2017-12-20T03:26:11.867Z,21.52
2017-12-20T03:27:18.075Z,21.05
2017-12-20T03:28:24.037Z,21.27
2017-12-20T03:29:30.885Z,23.58
2017-12-20T03:30:39.263Z,22.95
2017-12-20T03:31:46.623Z,21.48
2017-12-20T03:32:53.547Z,20.95
2017-12-20T03:34:01.196Z,23.92
2017-12-20T03:35:08.682Z,22.27
2017-12-20T03:36:15.713Z,22.23
2017-12-20T03:37:23.338Z,22.33
2017-12-20T03:38:29.660Z,22.25
2017-12-20T03:39:36.791Z,20.70
2017-12-20T03:40:43.334Z,21.58
2017-12-20T03:41:50.602Z,20.75
2017-12-20T03:42:58.387Z,20.67
2017-12-20T03:44:05.358Z,21.10
2017-12-20T03:45:12.583Z,21.60
2017-12-20T03:46:19.293Z,21.17
2017-12-20T03:47:26.251Z,22.13
2017-12-20T03:48:32.953Z,21.15
2017-12-20T03:49:40.233Z,20.58
2017-12-20T03:50:46.790Z,20.58
2017-12-20T03:51:53.483Z,19.40
2017-12-20T03:53:00.764Z,19.98
2017-12-20T03:54:08.972Z,21.45
2017-12-20T03:55:15.962Z,21.12
2017-12-20T03:56:22.447Z,19.80
2017-12-20T03:57:28.542Z,18.20
2017-12-20T03:58:34.464Z,18.73
2017-12-20T03:59:41.556Z,18.67
2017-12-20T04:00:48.481Z,20.62
2017-12-20T04:01:55.227Z,19.50
2017-12-20T04:03:02.573Z,20.25
2017-12-20T04:04:08.905Z,19.02
2017-12-20T04:05:16.067Z,20.23
2017-12-20T04:06:23.504Z,18.90
2017-12-20T04:07:29.787Z,19.95
2017-12-20T04:08:36.804Z,21.02
2017-12-20T04:09:44.029Z,19.58
2017-12-20T04:10:51.331Z,19.67
2017-12-20T04:11:58.528Z,20.85
2017-12-20T04:13:05.391Z,21.02
2017-12-20T04:14:12.373Z,22.05
2017-12-20T04:15:20.764Z,20.75
2017-12-20T04:16:28.214Z,22.30
2017-12-20T04:17:35.725Z,21.62
2017-12-20T04:18:42.660Z,21.27
2017-12-20T04:19:49.609Z,22.60
2017-12-20T04:21:00.771Z,19.45
2017-12-20T04:22:07.097Z,20.77
2017-12-20T04:23:13.270Z,21.10
2017-12-20T04:24:19.525Z,20.48
2017-12-20T04:25:25.916Z,20.40
2017-12-20T04:26:32.233Z,21.45
2017-12-20T04:27:38.486Z,21.25
2017-12-20T04:28:44.874Z,20.05
2017-12-20T04:29:51.803Z,21.23
2017-12-20T04:30:58.075Z,19.87
2017-12-20T04:32:03.942Z,20.85
2017-12-20T04:33:10.732Z,18.70
2017-12-20T04:34:17.885Z,19.00
2017-12-20T04:35:24.954Z,21.65
2017-12-20T04:36:32.377Z,19.95
2017-12-20T04:37:39.622Z,22.00
2017-12-20T04:38:47.055Z,20.50
2017-12-20T04:39:53.553Z,19.25
2017-12-20T04:41:00.385Z,21.30
2017-12-20T04:42:07.197Z,21.60
2017-12-20T04:43:13.689Z,21.85
2017-12-20T04:44:20.620Z,21.00
2017-12-20T04:45:27.243Z,20.02
2017-12-20T04:46:33.670Z,19.48
2017-12-20T04:47:39.904Z,20.27
2017-12-20T04:48:46.351Z,20.80
2017-12-20T04:49:53.171Z,20.30
2017-12-20T04:51:00.532Z,21.95
2017-12-20T04:52:08.320Z,21.73
2017-12-20T04:53:14.739Z,21.02
2017-12-20T04:54:22.457Z,22.20
2017-12-20T04:55:30.792Z,20.40
2017-12-20T04:56:38.233Z,20.85
2017-12-20T04:57:44.830Z,22.30
2017-12-20T04:58:51.027Z,22.62
2017-12-20T04:59:57.802Z,19.92
2017-12-20T05:01:05.181Z,20.08
2017-12-20T05:02:12.512Z,21.00
2017-12-20T05:03:20.066Z,20.17
2017-12-20T05:04:26.913Z,18.77
2017-12-20T05:05:35.605Z,19.83
2017-12-20T05:06:42.458Z,20.75
2017-12-20T05:07:49.330Z,22.42
2017-12-20T05:08:57.320Z,21.60
2017-12-20T05:10:04.258Z,21.27
2017-12-20T05:11:11.115Z,21.77
2017-12-20T05:12:17.821Z,21.33
2017-12-20T05:13:24.714Z,19.42
2017-12-20T05:14:32.112Z,21.10
2017-12-20T05:15:39.177Z,20.35
2017-12-20T05:16:47.496Z,21.67
2017-12-20T05:17:55.271Z,21.50
2017-12-20T05:19:02.287Z,21.10
2017-12-20T05:20:09.363Z,20.60
2017-12-20T05:21:17.192Z,20.42
2017-12-20T05:22:24.517Z,20.33
2017-12-20T05:23:31.102Z,20.52
2017-12-20T05:24:38.500Z,19.75
2017-12-20T05:25:45.926Z,19.62
2017-12-20T05:26:52.626Z,19.10
2017-12-20T05:27:59.435Z,18.92
2017-12-20T05:29:07.668Z,20.73
2017-12-20T05:30:14.588Z,18.70
2017-12-20T05:31:21.561Z,19.62
2017-12-20T05:32:28.295Z,18.52
2017-12-20T05:33:35.576Z,18.90
2017-12-20T05:34:43.411Z,19.30
2017-12-20T05:35:50.954Z,18.80
2017-12-20T05:36:59.643Z,18.30
2017-12-20T05:38:06.338Z,19.35
2017-12-20T05:39:13.580Z,19.20
2017-12-20T05:40:20.231Z,19.00
2017-12-20T05:41:27.112Z,20.30
2017-12-20T05:42:35.399Z,18.52
2017-12-20T05:43:41.919Z,19.87
2017-12-20T05:44:48.645Z,20.20
2017-12-20T05:45:56.563Z,18.62
2017-12-20T05:47:03.770Z,19.23
2017-12-20T05:48:11.148Z,17.25
2017-12-20T05:49:19.174Z,18.50
2017-12-20T05:50:32.694Z,19.15
2017-12-20T05:51:39.430Z,17.70
2017-12-20T05:52:48.677Z,18.62
2017-12-20T05:53:55.547Z,18.23
2017-12-20T05:55:03.140Z,17.65
2017-12-20T05:56:10.695Z,19.25
2017-12-20T05:57:18.178Z,20.00
2017-12-20T05:58:26.229Z,19.60
2017-12-20T05:59:34.334Z,18.87
2017-12-20T06:00:41.845Z,18.48
2017-12-20T06:01:51.995Z,18.45
2017-12-20T06:02:59.186Z,19.37
2017-12-20T06:04:06.521Z,18.12
2017-12-20T06:05:14.901Z,18.98
2017-12-20T06:06:22.902Z,19.10
2017-12-20T06:07:30.401Z,18.20
2017-12-20T06:08:37.676Z,18.05
2017-12-20T06:09:44.748Z,19.08
2017-12-20T06:10:52.887Z,20.20
2017-12-20T06:12:00.288Z,19.27
2017-12-20T06:13:08.830Z,19.62
2017-12-20T06:14:16.976Z,20.37
2017-12-20T06:15:25.314Z,19.45
2017-12-20T06:16:33.267Z,19.33
2017-12-20T06:17:40.713Z,18.95
2017-12-20T06:18:50.824Z,17.90
2017-12-20T06:19:57.731Z,19.65
2017-12-20T06:21:04.019Z,21.27
2017-12-20T06:22:10.303Z,19.65
2017-12-20T06:23:16.551Z,19.50
2017-12-20T06:24:24.551Z,19.20
2017-12-20T06:25:31.891Z,19.48
2017-12-20T06:26:38.627Z,20.73
2017-12-20T06:27:45.454Z,19.50
2017-12-20T06:28:53.195Z,18.40
2017-12-20T06:30:00.975Z,19.55
2017-12-20T06:31:08.349Z,20.08
2017-12-20T06:32:18.379Z,18.75
2017-12-20T06:33:25.589Z,18.95
2017-12-20T06:34:32.743Z,19.02
2017-12-20T06:35:40.779Z,17.25
2017-12-20T06:36:48.235Z,19.10
2017-12-20T06:37:56.568Z,18.37
2017-12-20T06:39:07.424Z,17.60
2017-12-20T06:40:14.491Z,17.92
2017-12-20T06:41:21.242Z,18.33
2017-12-20T06:42:28.258Z,19.15
2017-12-20T06:43:35.681Z,17.55
2017-12-20T06:44:42.990Z,20.60
2017-12-20T06:45:51.199Z,18.25
2017-12-20T06:46:57.424Z,21.23
2017-12-20T06:48:04.120Z,23.25
2017-12-20T06:49:10.950Z,24.75
2017-12-20T06:50:19.350Z,27.10
2017-12-20T06:51:26.485Z,26.92
2017-12-20T06:52:33.627Z,26.17
2017-12-20T06:53:40.810Z,25.62
2017-12-20T06:54:48.609Z,25.85
2017-12-20T06:55:55.448Z,23.73
2017-12-20T06:57:02.653Z,23.23
2017-12-20T06:58:10.058Z,25.25
2017-12-20T06:59:17.367Z,23.42
2017-12-20T07:00:25.668Z,24.67
2017-12-20T07:01:34.551Z,23.30
2017-12-20T07:02:42.359Z,24.23
2017-12-20T07:03:49.328Z,22.50
2017-12-20T07:04:56.660Z,22.70
2017-12-20T07:06:08.320Z,20.92
2017-12-20T07:07:15.307Z,20.92
2017-12-20T07:08:27.196Z,20.83
2017-12-20T07:09:33.418Z,21.73
2017-12-20T07:10:39.684Z,22.08
2017-12-20T07:11:45.888Z,21.20
2017-12-20T07:12:52.132Z,22.60
2017-12-20T07:13:58.388Z,21.25
2017-12-20T07:15:04.311Z,20.55
2017-12-20T07:16:10.528Z,21.83
2017-12-20T07:17:16.742Z,21.40
2017-12-20T07:18:22.950Z,20.80
2017-12-20T07:19:29.140Z,20.30
2017-12-20T07:20:35.408Z,20.42
2017-12-20T07:21:41.647Z,18.70
2017-12-20T07:22:47.942Z,18.12
2017-12-20T07:23:54.374Z,18.65
2017-12-20T07:25:00.715Z,19.17
2017-12-20T07:26:06.897Z,18.80
2017-12-20T07:27:13.168Z,19.60
2017-12-20T07:28:22.008Z,19.80
2017-12-20T07:29:28.829Z,18.30
2017-12-20T07:30:36.010Z,18.73
2017-12-20T07:31:43.721Z,19.12
2017-12-20T07:32:51.967Z,18.20
2017-12-20T07:33:59.660Z,16.73
2017-12-20T07:35:07.354Z,19.17
2017-12-20T07:36:16.552Z,17.58
2017-12-20T07:37:24.183Z,18.37
2017-12-20T07:38:31.523Z,17.17
2017-12-20T07:39:38.756Z,18.40
2017-12-20T07:40:46.307Z,17.92
2017-12-20T07:41:53.933Z,16.77
2017-12-20T07:43:02.022Z,18.67
2017-12-20T07:44:09.806Z,17.83
2017-12-20T07:45:17.810Z,18.37
2017-12-20T07:46:25.093Z,18.90
2017-12-20T07:47:32.288Z,16.52
2017-12-20T07:48:39.780Z,18.65
2017-12-20T07:49:46.415Z,20.27
2017-12-20T07:50:53.330Z,19.73
2017-12-20T07:52:00.909Z,19.65
2017-12-20T07:53:09.280Z,17.37
2017-12-20T07:54:16.615Z,18.30
2017-12-20T07:55:24.005Z,18.30
2017-12-20T07:56:31.460Z,17.70
2017-12-20T07:57:38.991Z,17.33
2017-12-20T07:58:46.156Z,18.87
2017-12-20T07:59:53.510Z,15.52
2017-12-20T08:01:01.470Z,17.98
2017-12-20T08:02:09.191Z,17.27
2017-12-20T08:03:17.404Z,17.23
2017-12-20T08:04:24.463Z,17.67
2017-12-20T08:05:32.156Z,18.17
2017-12-20T08:06:39.656Z,19.15
2017-12-20T08:07:46.303Z,18.23
2017-12-20T08:08:52.516Z,18.42
2017-12-20T08:09:58.740Z,17.75
2017-12-20T08:11:05.011Z,18.45
2017-12-20T08:12:11.183Z,18.90
2017-12-20T08:13:17.474Z,18.65
2017-12-20T08:14:23.664Z,17.35
2017-12-20T08:15:30.119Z,18.35
2017-12-20T08:16:40.003Z,18.15
2017-12-20T08:17:48.330Z,17.83
2017-12-20T08:18:55.841Z,16.95
2017-12-20T08:20:03.266Z,18.45
2017-12-20T08:21:10.623Z,19.45
2017-12-20T08:22:18.467Z,19.15
2017-12-20T08:23:26.879Z,20.48
2017-12-20T08:24:34.613Z,18.50
2017-12-20T08:25:41.541Z,18.55
2017-12-20T08:26:48.191Z,18.45
2017-12-20T08:27:55.902Z,17.83
2017-12-20T08:29:03.186Z,17.23
2017-12-20T08:30:10.790Z,20.37
2017-12-20T08:31:18.301Z,23.50
2017-12-20T08:32:26.837Z,21.17
2017-12-20T08:33:34.222Z,21.23
2017-12-20T08:34:42.831Z,22.67
2017-12-20T08:35:49.681Z,21.40
2017-12-20T08:36:56.853Z,22.95
2017-12-20T08:38:04.356Z,22.55
2017-12-20T08:39:11.849Z,20.77
2017-12-20T08:40:20.838Z,20.58
2017-12-20T08:41:28.044Z,20.90
2017-12-20T08:42:35.158Z,22.42
2017-12-20T08:43:43.068Z,18.87
2017-12-20T08:44:50.617Z,18.95
2017-12-20T08:45:58.268Z,18.90
2017-12-20T08:47:07.226Z,18.92
2017-12-20T08:48:15.342Z,19.50
2017-12-20T08:49:22.938Z,20.02
2017-12-20T08:50:30.154Z,20.20
2017-12-20T08:51:37.696Z,19.25
2017-12-20T08:52:44.919Z,19.90
2017-12-20T08:53:52.088Z,20.65
2017-12-20T08:54:58.683Z,20.83
2017-12-20T08:56:05.491Z,22.83
2017-12-20T08:57:12.678Z,22.62
2017-12-20T08:58:19.497Z,23.48
2017-12-20T08:59:26.073Z,22.87
2017-12-20T09:00:32.388Z,25.00
2017-12-20T09:01:40.068Z,22.62
2017-12-20T09:02:47.931Z,22.85
2017-12-20T09:03:54.546Z,25.15
2017-12-20T09:05:00.753Z,25.05
2017-12-20T09:06:08.503Z,24.20
2017-12-20T09:07:15.419Z,27.33
2017-12-20T09:08:22.161Z,25.83
2017-12-20T09:09:28.427Z,23.70
2017-12-20T09:10:35.434Z,26.37
2017-12-20T09:11:42.720Z,24.87
2017-12-20T09:12:50.560Z,23.83
2017-12-20T09:13:58.414Z,25.23
2017-12-20T09:15:06.051Z,23.67
2017-12-20T09:16:13.006Z,22.10
2017-12-20T09:17:20.241Z,24.37
2017-12-20T09:18:27.458Z,23.05
2017-12-20T09:19:34.879Z,24.25
2017-12-20T09:20:43.423Z,22.85
2017-12-20T09:21:50.984Z,21.45
2017-12-20T09:22:58.409Z,23.83
2017-12-20T09:24:06.214Z,22.85
2017-12-20T09:25:13.594Z,24.60
2017-12-20T09:26:22.209Z,24.00
2017-12-20T09:27:29.519Z,25.27
2017-12-20T09:28:38.805Z,23.98
2017-12-20T09:29:46.104Z,23.42
2017-12-20T09:30:53.604Z,25.05
2017-12-20T09:32:00.947Z,24.23
2017-12-20T09:33:07.909Z,25.65
2017-12-20T09:34:15.404Z,24.00
2017-12-20T09:35:22.300Z,24.23
2017-12-20T09:36:28.553Z,25.40
2017-12-20T09:37:34.859Z,24.45
2017-12-20T09:38:41.292Z,25.60
2017-12-20T09:39:47.554Z,26.77
2017-12-20T09:40:53.814Z,24.17
2017-12-20T09:42:00.052Z,25.00
2017-12-20T09:43:06.311Z,25.60
2017-12-20T09:44:12.605Z,26.35
2017-12-20T09:45:18.862Z,25.42
2017-12-20T09:46:25.082Z,23.98
2017-12-20T09:47:31.404Z,25.15
2017-12-20T09:48:37.695Z,24.40
2017-12-20T09:49:43.924Z,26.08
2017-12-20T09:50:50.217Z,25.67
2017-12-20T09:51:56.478Z,24.50
2017-12-20T09:53:04.601Z,24.80
2017-12-20T09:54:20.100Z,25.37
2017-12-20T09:55:31.097Z,23.95
2017-12-20T09:56:37.385Z,26.05
2017-12-20T09:57:43.666Z,25.10
2017-12-20T09:58:49.977Z,23.77
2017-12-20T09:59:56.224Z,26.40
2017-12-20T10:01:02.537Z,25.20
2017-12-20T10:02:09.938Z,25.30
2017-12-20T10:03:17.108Z,26.33
2017-12-20T10:04:23.792Z,24.98
2017-12-20T10:05:29.696Z,23.73
2017-12-20T10:06:35.933Z,25.92
2017-12-20T10:07:42.147Z,25.73
2017-12-20T10:08:47.703Z,26.65
2017-12-20T10:09:53.900Z,25.73
2017-12-20T10:10:59.861Z,26.80
2017-12-20T10:12:05.705Z,24.42
2017-12-20T10:13:11.954Z,25.00
2017-12-20T10:14:25.774Z,25.55
2017-12-20T10:15:36.742Z,24.42
2017-12-20T10:16:56.658Z,24.05
2017-12-20T10:18:04.477Z,24.90
2017-12-20T10:19:10.718Z,24.42
2017-12-20T10:20:16.923Z,25.20
2017-12-20T10:21:25.161Z,24.12
2017-12-20T10:22:31.387Z,23.95
2017-12-20T10:23:37.598Z,23.27
2017-12-20T10:24:43.847Z,22.77
2017-12-20T10:25:49.741Z,23.05
2017-12-20T10:26:55.705Z,23.85
2017-12-20T10:28:01.935Z,20.80
2017-12-20T10:29:07.762Z,19.65
2017-12-20T10:30:13.990Z,22.13
2017-12-20T10:31:20.283Z,21.10
2017-12-20T10:32:26.128Z,20.95
2017-12-20T10:33:32.342Z,21.17
2017-12-20T10:34:38.516Z,20.90
2017-12-20T10:35:44.787Z,20.58
2017-12-20T10:36:50.644Z,18.65
2017-12-20T10:37:56.530Z,20.73
2017-12-20T10:39:02.739Z,20.55
2017-12-20T10:40:08.960Z,20.55
2017-12-20T10:41:15.216Z,20.73
2017-12-20T10:42:21.482Z,20.45
2017-12-20T10:43:27.362Z,19.40
2017-12-20T10:44:33.255Z,19.02
2017-12-20T10:45:38.799Z,19.35
2017-12-20T10:46:45.219Z,21.42
2017-12-20T10:47:51.074Z,21.15
2017-12-20T10:48:56.963Z,19.92
2017-12-20T10:50:02.907Z,19.95
2017-12-20T10:51:09.164Z,18.70
2017-12-20T10:52:15.422Z,18.48
2017-12-20T10:53:21.647Z,20.08
2017-12-20T10:54:27.896Z,19.50
2017-12-20T10:55:33.711Z,19.87
2017-12-20T10:56:39.693Z,21.62
2017-12-20T10:57:45.898Z,19.05
2017-12-20T10:58:51.835Z,20.35
2017-12-20T10:59:58.092Z,17.95
2017-12-20T11:01:04.017Z,18.90
2017-12-20T11:02:09.921Z,21.17
2017-12-20T11:03:16.178Z,18.30
2017-12-20T11:04:22.446Z,18.87
2017-12-20T11:05:28.674Z,19.20
2017-12-20T11:06:34.625Z,19.10
2017-12-20T11:07:40.944Z,18.85
2017-12-20T11:08:47.153Z,19.45
2017-12-20T11:09:53.052Z,20.73
2017-12-20T11:10:59.396Z,19.60
2017-12-20T11:12:05.373Z,18.85
2017-12-20T11:13:11.615Z,20.37
2017-12-20T11:14:18.230Z,20.48
2017-12-20T11:15:24.467Z,19.48
2017-12-20T11:16:30.726Z,21.80
2017-12-20T11:17:36.961Z,21.23
2017-12-20T11:18:43.224Z,20.40
2017-12-20T11:19:49.785Z,19.65
2017-12-20T11:20:55.795Z,23.08
2017-12-20T11:22:01.316Z,20.52
2017-12-20T11:23:06.906Z,21.67
2017-12-20T11:24:12.826Z,19.05
2017-12-20T11:25:19.023Z,20.12
2017-12-20T11:26:25.236Z,20.83
2017-12-20T11:27:31.494Z,19.48
2017-12-20T11:28:37.670Z,20.65
2017-12-20T11:29:43.879Z,22.25
2017-12-20T11:30:49.255Z,21.17
2017-12-20T11:31:54.817Z,21.50
2017-12-20T11:33:00.723Z,20.83
2017-12-20T11:34:09.512Z,21.48
2017-12-20T11:35:15.695Z,19.10
2017-12-20T11:36:21.255Z,20.70
2017-12-20T11:37:27.176Z,21.25
2017-12-20T11:38:33.378Z,21.55
2017-12-20T11:39:39.587Z,21.87
2017-12-20T11:40:45.873Z,20.15
2017-12-20T11:41:52.129Z,20.33
2017-12-20T11:42:58.337Z,21.12
2017-12-20T11:44:04.545Z,21.80
2017-12-20T11:45:10.869Z,21.98
2017-12-20T11:46:17.319Z,22.83
2017-12-20T11:47:23.558Z,22.27
2017-12-20T11:48:29.836Z,22.37
2017-12-20T11:49:36.045Z,21.98
2017-12-20T11:50:42.296Z,21.55
2017-12-20T11:51:48.482Z,21.30
2017-12-20T11:52:54.715Z,21.27
2017-12-20T11:54:00.874Z,21.20
2017-12-20T11:55:06.802Z,21.35
2017-12-20T11:56:13.009Z,20.35
2017-12-20T11:57:19.326Z,20.90
2017-12-20T11:58:25.491Z,19.95
2017-12-20T11:59:31.329Z,21.77
2017-12-20T12:00:36.859Z,20.90
2017-12-20T12:01:42.394Z,21.62
2017-12-20T12:02:48.740Z,21.27
2017-12-20T12:03:54.669Z,20.90
2017-12-20T12:05:00.950Z,21.70
2017-12-20T12:06:07.258Z,21.27
2017-12-20T12:07:13.434Z,22.62
2017-12-20T12:08:19.693Z,19.52
2017-12-20T12:09:25.891Z,20.30
2017-12-20T12:10:32.157Z,20.08
2017-12-20T12:11:38.154Z,20.52
2017-12-20T12:12:44.434Z,21.40
2017-12-20T12:13:50.644Z,19.95
2017-12-20T12:14:56.925Z,19.95
2017-12-20T12:16:02.787Z,19.73
2017-12-20T12:17:08.981Z,19.65
2017-12-20T12:18:15.194Z,20.67
2017-12-20T12:19:21.444Z,20.27
2017-12-20T12:20:28.571Z,20.90
2017-12-20T12:21:34.222Z,20.00
2017-12-20T12:22:40.533Z,19.92
2017-12-20T12:23:46.727Z,20.77
2017-12-20T12:24:53.000Z,21.15
2017-12-20T12:25:58.570Z,21.45
2017-12-20T12:27:04.136Z,20.42
2017-12-20T12:28:10.478Z,21.67
2017-12-20T12:29:16.424Z,21.25
2017-12-20T12:30:23.221Z,20.37
2017-12-20T12:31:29.457Z,22.00
2017-12-20T12:32:35.740Z,20.25
2017-12-20T12:33:41.726Z,20.73
2017-12-20T12:34:48.013Z,21.27
2017-12-20T12:35:55.137Z,21.50
2017-12-20T12:37:01.357Z,20.08
2017-12-20T12:38:07.633Z,19.77
2017-12-20T12:39:14.491Z,20.33
2017-12-20T12:40:21.242Z,19.27
2017-12-20T12:41:27.161Z,22.58
2017-12-20T12:42:33.060Z,22.20
2017-12-20T12:43:39.349Z,21.33
2017-12-20T12:44:45.618Z,21.25
2017-12-20T12:45:51.648Z,21.48
2017-12-20T12:47:03.716Z,19.50
2017-12-20T12:48:09.623Z,20.58
2017-12-20T12:49:15.592Z,21.23
2017-12-20T12:50:22.236Z,20.65
2017-12-20T12:51:28.246Z,20.25
2017-12-20T12:52:34.166Z,18.45
2017-12-20T12:53:40.439Z,17.90
2017-12-20T12:54:46.721Z,20.40
2017-12-20T12:55:53.017Z,18.95
2017-12-20T12:57:00.026Z,19.70
2017-12-20T12:58:05.930Z,18.52
2017-12-20T12:59:12.123Z,18.77
2017-12-20T13:00:17.645Z,18.17
2017-12-20T13:01:23.890Z,19.10
2017-12-20T13:02:30.131Z,18.85
2017-12-20T13:03:36.502Z,19.83
2017-12-20T13:04:42.834Z,18.75
2017-12-20T13:05:49.154Z,20.33
2017-12-20T13:06:55.448Z,19.70
2017-12-20T13:08:01.744Z,19.58
2017-12-20T13:09:09.039Z,18.05
2017-12-20T13:10:15.321Z,18.20
2017-12-20T13:11:21.698Z,18.60
2017-12-20T13:12:27.746Z,18.33
2017-12-20T13:13:33.999Z,18.35
2017-12-20T13:14:40.274Z,17.42
2017-12-20T13:15:46.179Z,16.55
2017-12-20T13:16:52.817Z,17.10
2017-12-20T13:17:59.065Z,17.73
2017-12-20T13:19:05.303Z,16.60
2017-12-20T13:20:11.562Z,16.23
2017-12-20T13:21:17.847Z,17.83
2017-12-20T13:22:24.136Z,16.52
2017-12-20T13:23:30.358Z,16.25
2017-12-20T13:24:36.668Z,16.12
2017-12-20T13:25:43.152Z,15.02
2017-12-20T13:26:49.383Z,15.20
2017-12-20T13:27:55.704Z,16.67
2017-12-20T13:29:02.190Z,15.27
2017-12-20T13:30:08.537Z,15.88
2017-12-20T13:31:17.892Z,15.63
2017-12-20T13:32:24.177Z,16.02
2017-12-20T13:33:33.363Z,16.23
2017-12-20T13:34:39.684Z,16.40
2017-12-20T13:35:45.945Z,14.75
2017-12-20T13:36:51.893Z,15.98
2017-12-20T13:37:58.282Z,15.77
2017-12-20T13:39:03.916Z,17.17
2017-12-20T13:40:10.220Z,16.80
2017-12-20T13:41:16.484Z,16.50
2017-12-20T13:42:23.593Z,17.12
2017-12-20T13:43:29.846Z,16.80
2017-12-20T13:44:36.187Z,15.77
2017-12-20T13:45:42.524Z,16.55
2017-12-20T13:46:48.115Z,17.20
2017-12-20T13:47:54.351Z,16.80
2017-12-20T13:49:00.652Z,16.27
2017-12-20T13:50:06.943Z,15.98
2017-12-20T13:51:12.484Z,16.50
2017-12-20T13:52:18.762Z,15.88
2017-12-20T13:53:25.045Z,17.00
2017-12-20T13:54:30.964Z,16.98
2017-12-20T13:55:37.193Z,16.08
2017-12-20T13:56:43.438Z,16.40
2017-12-20T13:57:49.723Z,15.15
2017-12-20T13:58:56.015Z,16.60
2017-12-20T14:00:02.075Z,16.35
2017-12-20T14:01:07.360Z,14.82
2017-12-20T14:02:12.928Z,16.25
2017-12-20T14:03:18.842Z,14.52
2017-12-20T14:04:24.791Z,17.05
2017-12-20T14:05:30.721Z,15.23
2017-12-20T14:06:36.928Z,15.15
2017-12-20T14:07:43.166Z,15.52
2017-12-20T14:08:49.062Z,15.50
2017-12-20T14:09:55.338Z,15.20
2017-12-20T14:11:01.583Z,14.80
2017-12-20T14:12:07.763Z,15.20
2017-12-20T14:13:13.958Z,15.90
2017-12-20T14:14:19.802Z,15.10
2017-12-20T14:15:26.046Z,15.55
2017-12-20T14:16:32.291Z,15.35
2017-12-20T14:17:38.573Z,14.13
2017-12-20T14:18:45.697Z,14.38
2017-12-20T14:19:52.110Z,15.02